createdAt,value
2019-05-18T00:01:09.740Z,15.07
2019-05-18T00:06:15.294Z,15.87
2019-05-18T00:11:20.776Z,17.33
2019-05-18T00:16:26.281Z,17.83
2019-05-18T00:21:31.763Z,17.57
2019-05-18T00:26:37.205Z,16.63
2019-05-18T00:31:42.679Z,16.30
2019-05-18T00:36:52.175Z,16.67
2019-05-18T00:41:57.804Z,14.97
2019-05-18T00:47:03.958Z,14.20
2019-05-18T00:52:12.855Z,16.80
2019-05-18T00:57:18.964Z,16.00
2019-05-18T01:02:27.847Z,14.47
2019-05-18T01:07:33.248Z,13.87
2019-05-18T01:12:38.877Z,15.43
2019-05-18T01:17:56.465Z,16.27
2019-05-18T01:22:51.391Z,16.13
2019-05-18T01:27:56.906Z,15.67
2019-05-18T01:33:02.434Z,15.83
2019-05-18T01:38:08.518Z,14.80
2019-05-18T01:43:14.093Z,13.57
2019-05-18T01:48:19.476Z,13.23
2019-05-18T01:53:24.926Z,14.43
2019-05-18T01:58:30.338Z,24.63
2019-05-18T02:03:35.831Z,26.60
2019-05-18T02:08:41.277Z,25.73
2019-05-18T02:13:46.682Z,26.13
2019-05-18T02:18:52.307Z,25.83
2019-05-18T02:23:57.926Z,24.47
2019-05-18T02:29:03.570Z,23.90
2019-05-18T02:34:08.947Z,22.10
2019-05-18T02:39:14.464Z,21.03
2019-05-18T02:44:19.896Z,20.90
2019-05-18T02:49:25.354Z,17.00
2019-05-18T02:54:30.754Z,8.00
2019-05-18T02:59:36.196Z,6.77
2019-05-18T03:04:42.035Z,5.90
2019-05-18T03:09:47.363Z,6.00
2019-05-18T03:14:52.967Z,5.60
2019-05-18T03:19:58.351Z,5.10
2019-05-18T03:25:03.947Z,5.73
2019-05-18T03:30:10.425Z,6.70
2019-05-18T03:35:16.776Z,6.63
2019-05-18T03:40:22.197Z,6.67
2019-05-18T03:45:27.594Z,6.53
2019-05-18T03:50:33.021Z,6.53
2019-05-18T03:55:38.400Z,5.27
2019-05-18T04:00:44.385Z,6.07
2019-05-18T04:05:49.858Z,5.77
2019-05-18T04:10:55.640Z,5.73
2019-05-18T04:16:01.082Z,5.47
2019-05-18T04:21:09.088Z,5.50
2019-05-18T04:26:14.487Z,6.13
2019-05-18T04:31:19.979Z,6.40
2019-05-18T04:36:25.369Z,5.33
2019-05-18T04:41:30.831Z,5.70
2019-05-18T04:46:36.271Z,4.77
2019-05-18T04:51:41.948Z,5.07
2019-05-18T04:56:47.498Z,3.77
2019-05-18T05:01:52.897Z,3.70
2019-05-18T05:06:59.140Z,2.90
2019-05-18T05:12:04.630Z,3.20
2019-05-18T05:17:10.225Z,3.33
2019-05-18T05:22:16.539Z,3.50
2019-05-18T05:27:21.921Z,4.10
2019-05-18T05:32:27.299Z,5.00
2019-05-18T05:37:32.733Z,3.63
2019-05-18T05:42:38.456Z,3.97
2019-05-18T05:47:43.907Z,4.50
2019-05-18T05:52:49.465Z,3.50
2019-05-18T05:57:54.938Z,3.43
2019-05-18T06:03:00.404Z,3.80
2019-05-18T06:08:06.084Z,3.93
2019-05-18T06:13:11.584Z,4.33
2019-05-18T06:18:17.089Z,3.90
2019-05-18T06:23:22.443Z,4.07
2019-05-18T06:28:27.872Z,4.80
2019-05-18T06:33:33.308Z,5.20
2019-05-18T06:38:38.804Z,4.60
2019-05-18T06:43:44.211Z,4.60
2019-05-18T06:48:49.681Z,4.50
2019-05-18T06:53:55.361Z,3.90
2019-05-18T06:59:02.204Z,4.47
2019-05-18T07:04:07.711Z,4.47
2019-05-18T07:09:14.432Z,7.77
2019-05-18T07:14:25.688Z,5.00
2019-05-18T07:19:27.455Z,4.43
2019-05-18T07:24:32.947Z,3.60
2019-05-18T07:29:38.385Z,3.80
2019-05-18T07:34:43.883Z,3.13
2019-05-18T07:39:49.707Z,3.20
2019-05-18T07:44:55.294Z,3.83
2019-05-18T07:50:00.973Z,4.10
2019-05-18T07:55:07.154Z,3.83
2019-05-18T08:00:14.859Z,3.83
2019-05-18T08:05:20.676Z,3.70
2019-05-18T08:10:44.524Z,3.70
2019-05-18T08:15:50.247Z,3.50
2019-05-18T08:20:58.482Z,4.60
2019-05-18T08:26:04.321Z,3.37
2019-05-18T08:31:09.758Z,3.80
2019-05-18T08:36:15.273Z,4.03
2019-05-18T08:41:21.024Z,3.23
2019-05-18T08:46:26.580Z,3.73
2019-05-18T08:51:32.377Z,3.73
2019-05-18T08:56:38.134Z,3.23
2019-05-18T09:01:43.819Z,3.07
2019-05-18T09:06:49.370Z,3.27
2019-05-18T09:11:54.914Z,3.03
2019-05-18T09:17:00.337Z,3.10
2019-05-18T09:22:05.888Z,2.90
2019-05-18T09:27:11.297Z,2.80
2019-05-18T09:32:16.697Z,2.50
2019-05-18T09:37:22.108Z,2.20
2019-05-18T09:42:27.638Z,2.60
2019-05-18T09:47:33.264Z,2.77
2019-05-18T09:52:46.628Z,2.60
2019-05-18T09:57:46.211Z,2.80
2019-05-18T10:02:51.795Z,3.20
2019-05-18T10:07:57.319Z,2.87
2019-05-18T10:13:02.871Z,2.70
2019-05-18T10:18:08.336Z,3.43
2019-05-18T10:23:14.075Z,2.77
2019-05-18T10:28:20.143Z,1.80
2019-05-18T10:33:25.874Z,2.20
2019-05-18T10:38:31.445Z,2.20
2019-05-18T10:43:36.934Z,3.07
2019-05-18T10:48:42.385Z,1.80
2019-05-18T10:53:47.931Z,1.80
2019-05-18T10:58:53.428Z,2.37
2019-05-18T11:03:58.869Z,2.60
2019-05-18T11:09:06.201Z,4.00
2019-05-18T11:14:11.748Z,1.90
2019-05-18T11:19:17.344Z,2.00
2019-05-18T11:24:22.941Z,2.20
2019-05-18T11:29:28.377Z,3.70
2019-05-18T11:34:33.818Z,2.23
2019-05-18T11:39:39.423Z,2.80
2019-05-18T11:44:45.068Z,2.40
2019-05-18T11:49:50.714Z,2.10
2019-05-18T11:54:57.421Z,3.67
2019-05-18T12:00:03.068Z,3.17
2019-05-18T12:05:09.064Z,4.20
2019-05-18T12:10:17.849Z,4.73
2019-05-18T12:15:22.463Z,3.73
2019-05-18T12:20:27.955Z,4.87
2019-05-18T12:25:33.577Z,5.37
2019-05-18T12:30:39.231Z,5.20
2019-05-18T12:35:44.639Z,4.40
2019-05-18T12:40:50.109Z,4.60
2019-05-18T12:45:55.561Z,4.03
2019-05-18T12:51:00.980Z,2.60
2019-05-18T12:56:06.586Z,1.80
2019-05-18T13:01:12.235Z,1.70
2019-05-18T13:06:17.703Z,2.03
2019-05-18T13:11:23.296Z,1.90
2019-05-18T13:16:28.783Z,1.87
2019-05-18T13:21:34.265Z,1.80
2019-05-18T13:26:39.663Z,1.70
2019-05-18T13:31:45.119Z,14.00
2019-05-18T13:36:50.588Z,1.80
2019-05-18T13:41:56.027Z,1.50
2019-05-18T13:47:01.502Z,1.97
2019-05-18T13:52:06.987Z,1.30
2019-05-18T13:57:13.311Z,5.73
2019-05-18T14:02:18.754Z,1.80
2019-05-18T14:07:24.956Z,1.60
2019-05-18T14:12:30.396Z,1.60
2019-05-18T14:17:36.504Z,1.47
2019-05-18T14:22:44.648Z,1.50
2019-05-18T14:27:52.536Z,1.70
2019-05-18T14:32:57.912Z,1.90
2019-05-18T14:38:03.451Z,1.60
2019-05-18T14:43:09.108Z,1.80
2019-05-18T14:48:15.215Z,1.23
2019-05-18T14:53:20.777Z,1.57
2019-05-18T14:58:26.203Z,1.60
2019-05-18T15:03:32.211Z,1.60
2019-05-18T15:08:38.942Z,1.50
2019-05-18T15:13:44.394Z,1.60
2019-05-18T15:18:49.981Z,2.10
2019-05-18T15:23:55.412Z,2.10
2019-05-18T15:29:01.284Z,2.13
2019-05-18T15:34:06.756Z,1.70
2019-05-18T15:39:12.505Z,2.00
2019-05-18T15:44:19.791Z,2.10
2019-05-18T15:49:25.200Z,2.37
2019-05-18T15:54:30.829Z,2.07
2019-05-18T15:59:36.238Z,2.30
2019-05-18T16:04:41.653Z,2.97
2019-05-18T16:09:47.502Z,3.03
2019-05-18T16:14:53.389Z,3.83
2019-05-18T16:19:59.367Z,5.10
2019-05-18T16:25:05.728Z,5.17
2019-05-18T16:30:13.044Z,4.67
2019-05-18T16:35:19.432Z,3.90
2019-05-18T16:40:25.163Z,3.97
2019-05-18T16:45:31.045Z,3.30
2019-05-18T16:50:36.461Z,2.53
2019-05-18T16:55:41.863Z,2.80
2019-05-18T17:00:50.101Z,2.80
2019-05-18T17:05:55.016Z,2.33
2019-05-18T17:11:01.031Z,2.57
2019-05-18T17:16:06.485Z,2.50
2019-05-18T17:21:12.242Z,2.60
2019-05-18T17:26:18.171Z,3.17
2019-05-18T17:31:23.987Z,2.30
2019-05-18T17:36:29.699Z,2.07
2019-05-18T17:41:35.300Z,2.20
2019-05-18T17:46:43.756Z,1.90
2019-05-18T17:51:49.153Z,2.10
2019-05-18T17:57:07.477Z,1.90
2019-05-18T18:02:02.199Z,3.77
2019-05-18T18:07:09.311Z,1.90
2019-05-18T18:12:14.992Z,2.33
2019-05-18T18:17:20.414Z,2.17
2019-05-18T18:22:26.207Z,2.27
2019-05-18T18:27:31.779Z,1.93
2019-05-18T18:32:37.521Z,6.20
2019-05-18T18:37:43.329Z,1.60
2019-05-18T18:42:48.961Z,3.80
2019-05-18T18:47:54.858Z,1.80
2019-05-18T18:53:06.327Z,2.40
2019-05-18T18:58:12.973Z,2.03
2019-05-18T19:03:18.619Z,1.43
2019-05-18T19:08:24.087Z,1.83
2019-05-18T19:13:29.865Z,2.43
2019-05-18T19:18:35.828Z,1.83
2019-05-18T19:23:41.740Z,1.57
2019-05-18T19:28:47.172Z,1.30
2019-05-18T19:33:53.047Z,1.80
2019-05-18T19:38:58.502Z,1.30
2019-05-18T19:44:04.371Z,2.60
2019-05-18T19:49:10.112Z,3.13
2019-05-18T19:54:15.922Z,1.23
2019-05-18T19:59:21.567Z,1.70
2019-05-18T20:04:27.551Z,1.10
2019-05-18T20:09:33.300Z,1.30
2019-05-18T20:14:38.999Z,1.97
2019-05-18T20:19:44.718Z,1.40
2019-05-18T20:24:50.493Z,1.83
2019-05-18T20:29:56.586Z,1.10
2019-05-18T20:35:07.433Z,2.60
2019-05-18T20:40:14.100Z,1.50
2019-05-18T20:45:20.016Z,1.20
2019-05-18T20:50:25.679Z,2.30
2019-05-18T20:55:31.147Z,1.40
2019-05-18T21:00:38.523Z,2.17
2019-05-18T21:05:43.643Z,2.27
2019-05-18T21:10:49.163Z,3.43
2019-05-18T21:15:54.873Z,3.63
2019-05-18T21:21:00.499Z,2.80
2019-05-18T21:26:06.008Z,3.47
2019-05-18T21:31:11.427Z,4.20
2019-05-18T21:36:16.985Z,3.70
2019-05-18T21:41:22.585Z,4.20
2019-05-18T21:46:28.161Z,2.60
2019-05-18T21:51:33.544Z,2.20
2019-05-18T21:56:39.369Z,3.10
2019-05-18T22:01:44.955Z,2.53
2019-05-18T22:06:50.411Z,2.50
2019-05-18T22:11:55.996Z,3.40
2019-05-18T22:17:01.526Z,3.20
2019-05-18T22:22:07.091Z,2.90
2019-05-18T22:27:15.218Z,2.40
2019-05-18T22:32:20.743Z,2.67
2019-05-18T22:37:26.203Z,2.30
2019-05-18T22:42:31.802Z,3.90
2019-05-18T22:47:38.603Z,3.20
2019-05-18T22:52:44.275Z,3.93
2019-05-18T22:57:49.917Z,4.67
2019-05-18T23:02:55.927Z,2.43
2019-05-18T23:08:01.810Z,3.13
2019-05-18T23:13:07.605Z,3.10
2019-05-18T23:18:13.274Z,3.20
2019-05-18T23:23:18.996Z,4.03
2019-05-18T23:28:26.164Z,4.87
2019-05-18T23:33:32.030Z,5.07
2019-05-18T23:38:37.795Z,5.20
2019-05-18T23:43:43.506Z,6.00
2019-05-18T23:48:49.778Z,4.60
2019-05-18T23:53:55.556Z,4.10
2019-05-18T23:59:01.259Z,4.07
